sensor_id;sensor_type;location;lat;lon;timestamp;temperature;humidity
26107;DHT22;13866;50.748;12.630;2022-12-18T00:01:34;-10.10;99.90
26107;DHT22;13866;50.748;12.630;2022-12-18T00:04:02;-10.10;99.90
26107;DHT22;13866;50.748;12.630;2022-12-18T00:06:29;-10.10;99.90
26107;DHT22;13866;50.748;12.630;2022-12-18T00:08:56;-10.00;99.90
26107;DHT22;13866;50.748;12.630;2022-12-18T00:11:25;-10.00;99.90
26107;DHT22;13866;50.748;12.630;2022-12-18T00:13:51;-10.00;99.90
26107;DHT22;13866;50.748;12.630;2022-12-18T00:16:20;-10.00;99.90
26107;DHT22;13866;50.748;12.630;2022-12-18T00:18:47;-10.10;99.90
26107;DHT22;13866;50.748;12.630;2022-12-18T00:21:13;-10.10;99.90
26107;DHT22;13866;50.748;12.630;2022-12-18T00:23:40;-10.20;99.90
26107;DHT22;13866;50.748;12.630;2022-12-18T00:26:10;-10.10;99.90
26107;DHT22;13866;50.748;12.630;2022-12-18T00:28:36;-10.10;99.90
26107;DHT22;13866;50.748;12.630;2022-12-18T00:31:07;-10.10;99.90
26107;DHT22;13866;50.748;12.630;2022-12-18T00:33:33;-10.00;99.90
26107;DHT22;13866;50.748;12.630;2022-12-18T00:36:02;-10.10;99.90
26107;DHT22;13866;50.748;12.630;2022-12-18T00:38:28;-10.30;99.90
26107;DHT22;13866;50.748;12.630;2022-12-18T00:40:54;-10.30;99.90
26107;DHT22;13866;50.748;12.630;2022-12-18T00:43:19;-10.30;99.90
26107;DHT22;13866;50.748;12.630;2022-12-18T00:45:45;-10.30;99.90
26107;DHT22;13866;50.748;12.630;2022-12-18T00:48:11;-10.30;99.90
26107;DHT22;13866;50.748;12.630;2022-12-18T00:50:36;-10.30;99.90
26107;DHT22;13866;50.748;12.630;2022-12-18T00:53:02;-10.20;99.90
26107;DHT22;13866;50.748;12.630;2022-12-18T00:55:27;-10.20;99.90
26107;DHT22;13866;50.748;12.630;2022-12-18T00:57:53;-10.20;99.90
26107;DHT22;13866;50.748;12.630;2022-12-18T01:00:18;-10.20;99.90
26107;DHT22;13866;50.748;12.630;2022-12-18T01:02:44;-10.20;99.90
26107;DHT22;13866;50.748;12.630;2022-12-18T01:05:11;-10.20;99.90
26107;DHT22;13866;50.748;12.630;2022-12-18T01:07:37;-10.20;99.90
26107;DHT22;13866;50.748;12.630;2022-12-18T01:10:04;-10.30;99.90
26107;DHT22;13866;50.748;12.630;2022-12-18T01:12:30;-10.40;99.90
26107;DHT22;13866;50.748;12.630;2022-12-18T01:14:55;-10.40;99.90
26107;DHT22;13866;50.748;12.630;2022-12-18T01:17:21;-10.30;99.90
26107;DHT22;13866;50.748;12.630;2022-12-18T01:19:47;-10.30;99.90
26107;DHT22;13866;50.748;12.630;2022-12-18T01:22:12;-10.40;99.90
26107;DHT22;13866;50.748;12.630;2022-12-18T01:24:38;-10.40;99.90
26107;DHT22;13866;50.748;12.630;2022-12-18T01:27:03;-10.50;99.90
26107;DHT22;13866;50.748;12.630;2022-12-18T01:29:29;-10.50;99.90
26107;DHT22;13866;50.748;12.630;2022-12-18T01:31:55;-10.50;99.90
26107;DHT22;13866;50.748;12.630;2022-12-18T01:34:22;-10.50;99.90
26107;DHT22;13866;50.748;12.630;2022-12-18T01:36:47;-10.50;99.90
26107;DHT22;13866;50.748;12.630;2022-12-18T01:39:14;-10.60;99.90
26107;DHT22;13866;50.748;12.630;2022-12-18T01:41:40;-10.70;99.90
26107;DHT22;13866;50.748;12.630;2022-12-18T01:47:15;-10.80;99.90
26107;DHT22;13866;50.748;12.630;2022-12-18T01:49:43;-10.80;99.90
26107;DHT22;13866;50.748;12.630;2022-12-18T01:52:09;-10.80;99.90
26107;DHT22;13866;50.748;12.630;2022-12-18T01:54:34;-10.80;99.90
26107;DHT22;13866;50.748;12.630;2022-12-18T01:57:00;-10.70;99.90
26107;DHT22;13866;50.748;12.630;2022-12-18T01:59:26;-10.70;99.90
26107;DHT22;13866;50.748;12.630;2022-12-18T02:01:53;-10.70;99.90
26107;DHT22;13866;50.748;12.630;2022-12-18T02:06:44;-10.80;99.90
26107;DHT22;13866;50.748;12.630;2022-12-18T02:09:22;-10.90;99.90
26107;DHT22;13866;50.748;12.630;2022-12-18T02:11:59;-10.90;99.90
26107;DHT22;13866;50.748;12.630;2022-12-18T02:17:23;-11.00;99.90
26107;DHT22;13866;50.748;12.630;2022-12-18T02:20:16;-11.00;99.90
26107;DHT22;13866;50.748;12.630;2022-12-18T02:22:48;-11.00;99.90
26107;DHT22;13866;50.748;12.630;2022-12-18T02:27:54;-10.90;99.90
26107;DHT22;13866;50.748;12.630;2022-12-18T02:30:22;-10.70;99.90
26107;DHT22;13866;50.748;12.630;2022-12-18T02:32:50;-10.70;99.90
26107;DHT22;13866;50.748;12.630;2022-12-18T02:35:22;-10.90;99.90
26107;DHT22;13866;50.748;12.630;2022-12-18T02:37:49;-10.90;99.90
26107;DHT22;13866;50.748;12.630;2022-12-18T02:40:17;-10.90;99.90
26107;DHT22;13866;50.748;12.630;2022-12-18T02:42:43;-10.90;99.90
26107;DHT22;13866;50.748;12.630;2022-12-18T02:45:09;-10.80;99.90
26107;DHT22;13866;50.748;12.630;2022-12-18T02:47:39;-10.80;99.90
26107;DHT22;13866;50.748;12.630;2022-12-18T02:50:33;-10.70;99.90
26107;DHT22;13866;50.748;12.630;2022-12-18T02:55:56;-10.80;99.90
26107;DHT22;13866;50.748;12.630;2022-12-18T03:03:55;-10.90;99.90
26107;DHT22;13866;50.748;12.630;2022-12-18T03:06:24;-11.00;99.90
26107;DHT22;13866;50.748;12.630;2022-12-18T03:08:56;-11.00;99.90
26107;DHT22;13866;50.748;12.630;2022-12-18T03:11:24;-11.00;99.90
26107;DHT22;13866;50.748;12.630;2022-12-18T03:14:11;-11.10;99.90
26107;DHT22;13866;50.748;12.630;2022-12-18T03:16:39;-11.20;99.90
26107;DHT22;13866;50.748;12.630;2022-12-18T03:19:15;-11.20;99.90
26107;DHT22;13866;50.748;12.630;2022-12-18T03:21:54;-11.30;99.90
26107;DHT22;13866;50.748;12.630;2022-12-18T03:24:21;-11.30;99.90
26107;DHT22;13866;50.748;12.630;2022-12-18T03:26:52;-11.20;99.90
26107;DHT22;13866;50.748;12.630;2022-12-18T03:29:24;-11.10;99.90
26107;DHT22;13866;50.748;12.630;2022-12-18T03:31:54;-11.10;99.90
26107;DHT22;13866;50.748;12.630;2022-12-18T03:34:28;-11.20;99.90
26107;DHT22;13866;50.748;12.630;2022-12-18T03:36:55;-11.30;99.90
26107;DHT22;13866;50.748;12.630;2022-12-18T03:39:20;-11.30;99.90
26107;DHT22;13866;50.748;12.630;2022-12-18T03:47:45;-11.30;99.90
26107;DHT22;13866;50.748;12.630;2022-12-18T03:50:47;-11.30;99.90
26107;DHT22;13866;50.748;12.630;2022-12-18T03:55:49;-11.30;99.90
26107;DHT22;13866;50.748;12.630;2022-12-18T03:58:18;-11.30;99.90
26107;DHT22;13866;50.748;12.630;2022-12-18T04:00:45;-11.30;99.90
26107;DHT22;13866;50.748;12.630;2022-12-18T04:03:13;-11.50;99.90
26107;DHT22;13866;50.748;12.630;2022-12-18T04:05:40;-11.40;99.90
26107;DHT22;13866;50.748;12.630;2022-12-18T04:08:07;-11.50;99.90
26107;DHT22;13866;50.748;12.630;2022-12-18T04:10:33;-11.50;99.90
26107;DHT22;13866;50.748;12.630;2022-12-18T04:12:59;-11.60;99.90
26107;DHT22;13866;50.748;12.630;2022-12-18T04:15:24;-11.50;99.90
26107;DHT22;13866;50.748;12.630;2022-12-18T04:17:50;-11.50;99.90
26107;DHT22;13866;50.748;12.630;2022-12-18T04:20:16;-11.40;99.90
26107;DHT22;13866;50.748;12.630;2022-12-18T04:22:41;-11.30;99.90
26107;DHT22;13866;50.748;12.630;2022-12-18T04:25:07;-11.30;99.90
26107;DHT22;13866;50.748;12.630;2022-12-18T04:27:33;-11.20;99.90
26107;DHT22;13866;50.748;12.630;2022-12-18T04:29:58;-11.20;99.90
26107;DHT22;13866;50.748;12.630;2022-12-18T04:32:24;-11.20;99.90
26107;DHT22;13866;50.748;12.630;2022-12-18T04:34:50;-11.10;99.90
26107;DHT22;13866;50.748;12.630;2022-12-18T04:37:15;-11.10;99.90
26107;DHT22;13866;50.748;12.630;2022-12-18T04:39:41;-11.10;99.90
26107;DHT22;13866;50.748;12.630;2022-12-18T04:42:06;-11.10;99.90
26107;DHT22;13866;50.748;12.630;2022-12-18T04:44:32;-11.20;99.90
26107;DHT22;13866;50.748;12.630;2022-12-18T04:46:57;-11.10;99.90
26107;DHT22;13866;50.748;12.630;2022-12-18T04:49:23;-11.00;99.90
26107;DHT22;13866;50.748;12.630;2022-12-18T04:51:48;-11.00;99.90
26107;DHT22;13866;50.748;12.630;2022-12-18T04:54:14;-11.10;99.90
26107;DHT22;13866;50.748;12.630;2022-12-18T04:56:39;-10.90;99.90
26107;DHT22;13866;50.748;12.630;2022-12-18T04:59:05;-10.80;99.90
26107;DHT22;13866;50.748;12.630;2022-12-18T05:01:30;-10.70;99.90
26107;DHT22;13866;50.748;12.630;2022-12-18T05:03:56;-10.70;99.90
26107;DHT22;13866;50.748;12.630;2022-12-18T05:06:21;-10.80;99.90
26107;DHT22;13866;50.748;12.630;2022-12-18T05:08:47;-10.80;99.90
26107;DHT22;13866;50.748;12.630;2022-12-18T05:11:14;-11.00;99.90
26107;DHT22;13866;50.748;12.630;2022-12-18T05:13:41;-11.20;99.90
26107;DHT22;13866;50.748;12.630;2022-12-18T05:16:08;-11.20;99.90
26107;DHT22;13866;50.748;12.630;2022-12-18T05:18:34;-11.20;99.90
26107;DHT22;13866;50.748;12.630;2022-12-18T05:21:00;-11.20;99.90
26107;DHT22;13866;50.748;12.630;2022-12-18T05:23:26;-11.20;99.90
26107;DHT22;13866;50.748;12.630;2022-12-18T05:25:56;-11.30;99.90
26107;DHT22;13866;50.748;12.630;2022-12-18T05:28:23;-11.30;99.90
26107;DHT22;13866;50.748;12.630;2022-12-18T05:30:53;-11.30;99.90
26107;DHT22;13866;50.748;12.630;2022-12-18T05:33:20;-11.30;99.90
26107;DHT22;13866;50.748;12.630;2022-12-18T05:35:53;-11.30;99.90
26107;DHT22;13866;50.748;12.630;2022-12-18T05:38:21;-11.50;99.90
26107;DHT22;13866;50.748;12.630;2022-12-18T05:40:50;-11.50;99.90
26107;DHT22;13866;50.748;12.630;2022-12-18T05:43:17;-11.50;99.90
26107;DHT22;13866;50.748;12.630;2022-12-18T05:45:43;-11.50;99.90
26107;DHT22;13866;50.748;12.630;2022-12-18T05:48:09;-11.50;99.90
26107;DHT22;13866;50.748;12.630;2022-12-18T05:50:40;-11.50;99.90
26107;DHT22;13866;50.748;12.630;2022-12-18T05:53:06;-11.50;99.90
26107;DHT22;13866;50.748;12.630;2022-12-18T05:55:36;-11.50;99.90
26107;DHT22;13866;50.748;12.630;2022-12-18T05:58:03;-11.60;99.90
26107;DHT22;13866;50.748;12.630;2022-12-18T06:00:29;-11.70;99.90
26107;DHT22;13866;50.748;12.630;2022-12-18T06:02:55;-11.80;99.90
26107;DHT22;13866;50.748;12.630;2022-12-18T06:05:21;-11.90;99.90
26107;DHT22;13866;50.748;12.630;2022-12-18T06:07:46;-11.80;99.90
26107;DHT22;13866;50.748;12.630;2022-12-18T06:10:12;-11.80;99.90
26107;DHT22;13866;50.748;12.630;2022-12-18T06:12:37;-11.80;99.90
26107;DHT22;13866;50.748;12.630;2022-12-18T06:15:03;-11.80;99.90
26107;DHT22;13866;50.748;12.630;2022-12-18T06:17:30;-11.80;99.90
26107;DHT22;13866;50.748;12.630;2022-12-18T06:19:56;-11.90;99.90
26107;DHT22;13866;50.748;12.630;2022-12-18T06:22:22;-12.00;99.90
26107;DHT22;13866;50.748;12.630;2022-12-18T06:24:47;-11.90;99.90
26107;DHT22;13866;50.748;12.630;2022-12-18T06:27:13;-11.90;99.90
26107;DHT22;13866;50.748;12.630;2022-12-18T06:29:38;-11.80;99.90
26107;DHT22;13866;50.748;12.630;2022-12-18T06:32:04;-11.80;99.90
26107;DHT22;13866;50.748;12.630;2022-12-18T06:34:30;-11.70;99.90
26107;DHT22;13866;50.748;12.630;2022-12-18T06:36:55;-11.70;99.90
26107;DHT22;13866;50.748;12.630;2022-12-18T06:39:21;-11.70;99.90
26107;DHT22;13866;50.748;12.630;2022-12-18T06:41:46;-11.70;99.90
26107;DHT22;13866;50.748;12.630;2022-12-18T06:44:12;-11.70;99.90
26107;DHT22;13866;50.748;12.630;2022-12-18T06:46:37;-11.90;99.90
26107;DHT22;13866;50.748;12.630;2022-12-18T06:49:03;-11.80;99.90
26107;DHT22;13866;50.748;12.630;2022-12-18T06:51:29;-11.80;99.90
26107;DHT22;13866;50.748;12.630;2022-12-18T06:53:54;-11.80;99.90
26107;DHT22;13866;50.748;12.630;2022-12-18T06:56:20;-11.80;99.90
26107;DHT22;13866;50.748;12.630;2022-12-18T06:58:45;-11.90;99.90
26107;DHT22;13866;50.748;12.630;2022-12-18T07:01:12;-11.90;99.90
26107;DHT22;13866;50.748;12.630;2022-12-18T07:03:39;-12.00;99.90
26107;DHT22;13866;50.748;12.630;2022-12-18T07:06:05;-12.00;99.90
26107;DHT22;13866;50.748;12.630;2022-12-18T07:08:31;-12.10;99.90
26107;DHT22;13866;50.748;12.630;2022-12-18T07:10:57;-12.10;99.90
26107;DHT22;13866;50.748;12.630;2022-12-18T07:13:23;-12.10;99.90
26107;DHT22;13866;50.748;12.630;2022-12-18T07:15:49;-12.10;99.90
26107;DHT22;13866;50.748;12.630;2022-12-18T07:18:14;-12.00;99.90
26107;DHT22;13866;50.748;12.630;2022-12-18T07:20:40;-11.90;99.90
26107;DHT22;13866;50.748;12.630;2022-12-18T07:23:05;-12.00;99.90
26107;DHT22;13866;50.748;12.630;2022-12-18T07:25:35;-12.00;99.90
26107;DHT22;13866;50.748;12.630;2022-12-18T07:28:02;-11.90;99.90
26107;DHT22;13866;50.748;12.630;2022-12-18T07:30:28;-11.90;99.90
26107;DHT22;13866;50.748;12.630;2022-12-18T07:32:53;-12.00;99.90
26107;DHT22;13866;50.748;12.630;2022-12-18T07:35:19;-12.00;99.90
26107;DHT22;13866;50.748;12.630;2022-12-18T07:37:44;-12.00;99.90
26107;DHT22;13866;50.748;12.630;2022-12-18T07:40:10;-11.90;99.90
26107;DHT22;13866;50.748;12.630;2022-12-18T07:42:36;-12.00;99.90
26107;DHT22;13866;50.748;12.630;2022-12-18T07:45:03;-11.90;99.90
26107;DHT22;13866;50.748;12.630;2022-12-18T07:47:29;-12.00;99.90
26107;DHT22;13866;50.748;12.630;2022-12-18T07:49:54;-12.00;99.90
26107;DHT22;13866;50.748;12.630;2022-12-18T07:52:20;-11.90;99.90
26107;DHT22;13866;50.748;12.630;2022-12-18T07:54:46;-11.90;99.90
26107;DHT22;13866;50.748;12.630;2022-12-18T07:57:14;-11.70;99.90
26107;DHT22;13866;50.748;12.630;2022-12-18T07:59:39;-11.70;99.90
26107;DHT22;13866;50.748;12.630;2022-12-18T08:02:05;-11.60;99.90
26107;DHT22;13866;50.748;12.630;2022-12-18T08:04:30;-11.50;99.90
26107;DHT22;13866;50.748;12.630;2022-12-18T08:06:56;-11.50;99.90
26107;DHT22;13866;50.748;12.630;2022-12-18T08:09:21;-11.50;99.90
26107;DHT22;13866;50.748;12.630;2022-12-18T08:11:47;-11.50;99.90
26107;DHT22;13866;50.748;12.630;2022-12-18T08:14:12;-11.50;99.90
26107;DHT22;13866;50.748;12.630;2022-12-18T08:16:39;-11.40;99.90
26107;DHT22;13866;50.748;12.630;2022-12-18T08:19:05;-11.40;99.90
26107;DHT22;13866;50.748;12.630;2022-12-18T08:21:31;-11.30;99.90
26107;DHT22;13866;50.748;12.630;2022-12-18T08:23:59;-11.20;99.90
26107;DHT22;13866;50.748;12.630;2022-12-18T08:26:27;-11.10;99.90
26107;DHT22;13866;50.748;12.630;2022-12-18T08:28:55;-10.90;99.90
26107;DHT22;13866;50.748;12.630;2022-12-18T08:31:22;-10.80;99.90
26107;DHT22;13866;50.748;12.630;2022-12-18T08:33:52;-10.70;99.90
26107;DHT22;13866;50.748;12.630;2022-12-18T08:36:18;-10.60;99.90
26107;DHT22;13866;50.748;12.630;2022-12-18T08:38:45;-10.60;99.90
26107;DHT22;13866;50.748;12.630;2022-12-18T08:41:13;-10.70;99.90
26107;DHT22;13866;50.748;12.630;2022-12-18T08:43:39;-10.50;99.90
26107;DHT22;13866;50.748;12.630;2022-12-18T08:46:25;-10.30;99.90
26107;DHT22;13866;50.748;12.630;2022-12-18T08:48:51;-10.00;99.90
26107;DHT22;13866;50.748;12.630;2022-12-18T08:51:18;-9.80;99.90
26107;DHT22;13866;50.748;12.630;2022-12-18T08:53:44;-9.60;99.90
26107;DHT22;13866;50.748;12.630;2022-12-18T08:56:10;-9.30;99.90
26107;DHT22;13866;50.748;12.630;2022-12-18T08:58:36;-8.90;99.90
26107;DHT22;13866;50.748;12.630;2022-12-18T09:01:03;-8.50;99.90
26107;DHT22;13866;50.748;12.630;2022-12-18T09:03:29;-8.20;99.90
26107;DHT22;13866;50.748;12.630;2022-12-18T09:05:55;-8.10;99.90
26107;DHT22;13866;50.748;12.630;2022-12-18T09:08:20;-7.90;99.90
26107;DHT22;13866;50.748;12.630;2022-12-18T09:10:48;-7.90;99.90
26107;DHT22;13866;50.748;12.630;2022-12-18T09:13:15;-7.80;99.90
26107;DHT22;13866;50.748;12.630;2022-12-18T09:15:46;-7.40;99.90
26107;DHT22;13866;50.748;12.630;2022-12-18T09:18:13;-7.20;99.90
26107;DHT22;13866;50.748;12.630;2022-12-18T09:20:39;-7.00;99.90
26107;DHT22;13866;50.748;12.630;2022-12-18T09:23:05;-6.80;99.90
26107;DHT22;13866;50.748;12.630;2022-12-18T09:25:31;-6.60;99.90
26107;DHT22;13866;50.748;12.630;2022-12-18T09:27:59;-6.40;99.90
26107;DHT22;13866;50.748;12.630;2022-12-18T09:30:24;-6.30;99.90
26107;DHT22;13866;50.748;12.630;2022-12-18T09:32:50;-6.30;99.90
26107;DHT22;13866;50.748;12.630;2022-12-18T09:35:15;-6.30;99.90
26107;DHT22;13866;50.748;12.630;2022-12-18T09:37:41;-6.30;99.90
26107;DHT22;13866;50.748;12.630;2022-12-18T09:40:19;-6.30;99.90
26107;DHT22;13866;50.748;12.630;2022-12-18T09:42:52;-6.40;99.90
26107;DHT22;13866;50.748;12.630;2022-12-18T09:45:19;-6.50;99.90
26107;DHT22;13866;50.748;12.630;2022-12-18T09:47:47;-6.50;99.90
26107;DHT22;13866;50.748;12.630;2022-12-18T09:50:32;-6.40;99.90
26107;DHT22;13866;50.748;12.630;2022-12-18T09:53:04;-6.30;99.90
26107;DHT22;13866;50.748;12.630;2022-12-18T09:55:36;-6.40;99.90
26107;DHT22;13866;50.748;12.630;2022-12-18T09:58:30;-6.30;99.90
26107;DHT22;13866;50.748;12.630;2022-12-18T10:00:57;-6.20;99.90
26107;DHT22;13866;50.748;12.630;2022-12-18T10:03:23;-6.20;99.90
26107;DHT22;13866;50.748;12.630;2022-12-18T10:06:05;-6.10;99.90
26107;DHT22;13866;50.748;12.630;2022-12-18T10:08:46;-6.10;99.90
26107;DHT22;13866;50.748;12.630;2022-12-18T10:11:29;-6.00;99.90
26107;DHT22;13866;50.748;12.630;2022-12-18T10:14:07;-5.90;99.90
26107;DHT22;13866;50.748;12.630;2022-12-18T10:19:52;-5.70;99.90
26107;DHT22;13866;50.748;12.630;2022-12-18T10:25:21;-5.60;99.90
26107;DHT22;13866;50.748;12.630;2022-12-18T10:27:48;-5.60;99.90
26107;DHT22;13866;50.748;12.630;2022-12-18T10:30:19;-5.60;99.90
26107;DHT22;13866;50.748;12.630;2022-12-18T10:32:45;-5.60;99.90
26107;DHT22;13866;50.748;12.630;2022-12-18T10:35:21;-5.60;99.90
26107;DHT22;13866;50.748;12.630;2022-12-18T10:38:23;-5.60;99.90
26107;DHT22;13866;50.748;12.630;2022-12-18T10:43:21;-5.60;99.90
26107;DHT22;13866;50.748;12.630;2022-12-18T10:48:24;-5.50;99.90
26107;DHT22;13866;50.748;12.630;2022-12-18T10:50:51;-5.50;99.90
26107;DHT22;13866;50.748;12.630;2022-12-18T10:53:29;-5.50;99.90
26107;DHT22;13866;50.748;12.630;2022-12-18T10:56:02;-5.40;99.90
26107;DHT22;13866;50.748;12.630;2022-12-18T10:58:31;-5.40;99.90
26107;DHT22;13866;50.748;12.630;2022-12-18T11:01:13;-5.30;99.90
26107;DHT22;13866;50.748;12.630;2022-12-18T11:06:15;-5.20;99.90
26107;DHT22;13866;50.748;12.630;2022-12-18T11:08:43;-5.10;99.90
26107;DHT22;13866;50.748;12.630;2022-12-18T11:11:20;-5.00;99.90
26107;DHT22;13866;50.748;12.630;2022-12-18T11:14:20;-4.90;99.90
26107;DHT22;13866;50.748;12.630;2022-12-18T11:16:48;-4.80;99.90
26107;DHT22;13866;50.748;12.630;2022-12-18T11:19:34;-4.80;99.90
26107;DHT22;13866;50.748;12.630;2022-12-18T11:22:02;-4.70;99.90
26107;DHT22;13866;50.748;12.630;2022-12-18T11:24:30;-4.60;99.90
26107;DHT22;13866;50.748;12.630;2022-12-18T11:26:59;-4.50;99.90
26107;DHT22;13866;50.748;12.630;2022-12-18T11:29:35;-4.40;99.90
26107;DHT22;13866;50.748;12.630;2022-12-18T11:32:22;-4.30;99.90
26107;DHT22;13866;50.748;12.630;2022-12-18T11:34:55;-4.20;99.90
26107;DHT22;13866;50.748;12.630;2022-12-18T11:37:23;-4.10;99.90
26107;DHT22;13866;50.748;12.630;2022-12-18T11:40:11;-4.00;99.90
26107;DHT22;13866;50.748;12.630;2022-12-18T11:42:49;-3.90;99.90
26107;DHT22;13866;50.748;12.630;2022-12-18T11:45:27;-3.70;99.90
26107;DHT22;13866;50.748;12.630;2022-12-18T11:48:03;-3.60;99.90
26107;DHT22;13866;50.748;12.630;2022-12-18T11:50:41;-3.50;99.90
26107;DHT22;13866;50.748;12.630;2022-12-18T11:53:13;-3.40;99.90
26107;DHT22;13866;50.748;12.630;2022-12-18T12:01:31;-3.10;99.90
26107;DHT22;13866;50.748;12.630;2022-12-18T12:04:27;-3.10;99.90
26107;DHT22;13866;50.748;12.630;2022-12-18T12:07:11;-3.00;99.90
26107;DHT22;13866;50.748;12.630;2022-12-18T12:17:46;-3.00;99.90
26107;DHT22;13866;50.748;12.630;2022-12-18T12:20:49;-2.90;99.90
26107;DHT22;13866;50.748;12.630;2022-12-18T12:23:47;-2.80;99.90
26107;DHT22;13866;50.748;12.630;2022-12-18T12:26:38;-2.70;99.90
26107;DHT22;13866;50.748;12.630;2022-12-18T12:29:47;-2.60;99.90
26107;DHT22;13866;50.748;12.630;2022-12-18T12:40:26;-2.30;99.90
26107;DHT22;13866;50.748;12.630;2022-12-18T12:42:58;-2.30;99.90
26107;DHT22;13866;50.748;12.630;2022-12-18T12:45:46;-2.20;99.90
26107;DHT22;13866;50.748;12.630;2022-12-18T12:48:24;-2.20;99.90
26107;DHT22;13866;50.748;12.630;2022-12-18T12:50:53;-2.20;99.90
26107;DHT22;13866;50.748;12.630;2022-12-18T12:53:27;-2.20;99.90
26107;DHT22;13866;50.748;12.630;2022-12-18T12:55:55;-2.20;99.90
26107;DHT22;13866;50.748;12.630;2022-12-18T12:58:49;-2.10;99.90
26107;DHT22;13866;50.748;12.630;2022-12-18T13:01:34;-2.10;99.90
26107;DHT22;13866;50.748;12.630;2022-12-18T13:04:30;-2.00;99.90
26107;DHT22;13866;50.748;12.630;2022-12-18T13:10:23;-1.90;99.90
26107;DHT22;13866;50.748;12.630;2022-12-18T13:15:33;-2.00;99.90
26107;DHT22;13866;50.748;12.630;2022-12-18T13:28:16;-2.20;99.90
26107;DHT22;13866;50.748;12.630;2022-12-18T13:31:00;-2.20;99.90
26107;DHT22;13866;50.748;12.630;2022-12-18T13:39:11;-2.40;99.90
26107;DHT22;13866;50.748;12.630;2022-12-18T13:41:54;-2.50;99.90
26107;DHT22;13866;50.748;12.630;2022-12-18T13:44:58;-2.60;99.90
26107;DHT22;13866;50.748;12.630;2022-12-18T13:47:32;-2.70;99.90
26107;DHT22;13866;50.748;12.630;2022-12-18T13:49:59;-2.90;99.90
26107;DHT22;13866;50.748;12.630;2022-12-18T13:52:33;-3.00;99.90
26107;DHT22;13866;50.748;12.630;2022-12-18T13:55:02;-3.10;99.90
26107;DHT22;13866;50.748;12.630;2022-12-18T13:59:58;-3.30;99.90
26107;DHT22;13866;50.748;12.630;2022-12-18T14:02:26;-3.40;99.90
26107;DHT22;13866;50.748;12.630;2022-12-18T14:04:52;-3.40;99.90
26107;DHT22;13866;50.748;12.630;2022-12-18T14:07:26;-3.60;99.90
26107;DHT22;13866;50.748;12.630;2022-12-18T14:09:58;-3.70;99.90
26107;DHT22;13866;50.748;12.630;2022-12-18T14:12:28;-3.80;99.90
26107;DHT22;13866;50.748;12.630;2022-12-18T14:17:59;-3.80;99.90
26107;DHT22;13866;50.748;12.630;2022-12-18T14:20:27;-3.90;99.90
26107;DHT22;13866;50.748;12.630;2022-12-18T14:22:54;-4.00;99.90
26107;DHT22;13866;50.748;12.630;2022-12-18T14:25:29;-4.10;99.90
26107;DHT22;13866;50.748;12.630;2022-12-18T14:28:21;-4.10;99.90
26107;DHT22;13866;50.748;12.630;2022-12-18T14:30:48;-4.20;99.90
26107;DHT22;13866;50.748;12.630;2022-12-18T14:33:27;-4.20;99.90
26107;DHT22;13866;50.748;12.630;2022-12-18T14:35:58;-4.30;99.90
26107;DHT22;13866;50.748;12.630;2022-12-18T14:38:31;-4.40;99.90
26107;DHT22;13866;50.748;12.630;2022-12-18T14:40:59;-4.50;99.90
26107;DHT22;13866;50.748;12.630;2022-12-18T14:43:26;-4.50;99.90
26107;DHT22;13866;50.748;12.630;2022-12-18T14:45:52;-4.70;99.90
26107;DHT22;13866;50.748;12.630;2022-12-18T14:48:34;-4.70;99.90
26107;DHT22;13866;50.748;12.630;2022-12-18T14:51:23;-4.90;99.90
26107;DHT22;13866;50.748;12.630;2022-12-18T14:54:03;-5.00;99.90
26107;DHT22;13866;50.748;12.630;2022-12-18T14:56:37;-5.00;99.90
26107;DHT22;13866;50.748;12.630;2022-12-18T14:59:21;-5.10;99.90
26107;DHT22;13866;50.748;12.630;2022-12-18T15:04:39;-5.30;99.90
26107;DHT22;13866;50.748;12.630;2022-12-18T15:12:43;-5.40;99.90
26107;DHT22;13866;50.748;12.630;2022-12-18T15:18:13;-5.60;99.90
26107;DHT22;13866;50.748;12.630;2022-12-18T15:20:57;-5.60;99.90
26107;DHT22;13866;50.748;12.630;2022-12-18T15:26:11;-5.80;99.90
26107;DHT22;13866;50.748;12.630;2022-12-18T15:28:56;-5.80;99.90
26107;DHT22;13866;50.748;12.630;2022-12-18T15:31:34;-5.90;99.90
26107;DHT22;13866;50.748;12.630;2022-12-18T15:34:17;-5.90;99.90
26107;DHT22;13866;50.748;12.630;2022-12-18T15:36:44;-5.90;99.90
26107;DHT22;13866;50.748;12.630;2022-12-18T15:39:12;-5.90;99.90
26107;DHT22;13866;50.748;12.630;2022-12-18T15:41:38;-6.00;99.90
26107;DHT22;13866;50.748;12.630;2022-12-18T15:44:22;-6.00;99.90
26107;DHT22;13866;50.748;12.630;2022-12-18T15:46:48;-6.10;99.90
26107;DHT22;13866;50.748;12.630;2022-12-18T15:49:14;-6.10;99.90
26107;DHT22;13866;50.748;12.630;2022-12-18T15:51:39;-6.20;99.90
26107;DHT22;13866;50.748;12.630;2022-12-18T15:54:10;-6.20;99.90
26107;DHT22;13866;50.748;12.630;2022-12-18T15:56:36;-6.10;99.90
26107;DHT22;13866;50.748;12.630;2022-12-18T15:59:21;-6.10;99.90
26107;DHT22;13866;50.748;12.630;2022-12-18T16:01:48;-6.00;99.90
26107;DHT22;13866;50.748;12.630;2022-12-18T16:04:16;-6.10;99.90
26107;DHT22;13866;50.748;12.630;2022-12-18T16:06:42;-6.20;99.90
26107;DHT22;13866;50.748;12.630;2022-12-18T16:09:07;-6.10;99.90
26107;DHT22;13866;50.748;12.630;2022-12-18T16:11:34;-6.20;99.90
26107;DHT22;13866;50.748;12.630;2022-12-18T16:16:48;-6.20;99.90
26107;DHT22;13866;50.748;12.630;2022-12-18T16:19:14;-6.10;99.90
26107;DHT22;13866;50.748;12.630;2022-12-18T16:21:40;-6.10;99.90
26107;DHT22;13866;50.748;12.630;2022-12-18T16:24:08;-6.20;99.90
26107;DHT22;13866;50.748;12.630;2022-12-18T16:26:34;-6.20;99.90
26107;DHT22;13866;50.748;12.630;2022-12-18T16:29:00;-6.20;99.90
26107;DHT22;13866;50.748;12.630;2022-12-18T16:31:25;-6.20;99.90
26107;DHT22;13866;50.748;12.630;2022-12-18T16:34:18;-6.30;99.90
26107;DHT22;13866;50.748;12.630;2022-12-18T16:36:46;-6.30;99.90
26107;DHT22;13866;50.748;12.630;2022-12-18T16:39:12;-6.40;99.90
26107;DHT22;13866;50.748;12.630;2022-12-18T16:41:37;-6.40;99.90
26107;DHT22;13866;50.748;12.630;2022-12-18T16:44:03;-6.40;99.90
26107;DHT22;13866;50.748;12.630;2022-12-18T16:46:29;-6.50;99.90
26107;DHT22;13866;50.748;12.630;2022-12-18T16:48:57;-6.50;99.90
26107;DHT22;13866;50.748;12.630;2022-12-18T16:51:22;-6.40;99.90
26107;DHT22;13866;50.748;12.630;2022-12-18T16:53:48;-6.50;99.90
26107;DHT22;13866;50.748;12.630;2022-12-18T16:56:13;-6.50;99.90
26107;DHT22;13866;50.748;12.630;2022-12-18T16:58:39;-6.50;99.90
26107;DHT22;13866;50.748;12.630;2022-12-18T17:01:09;-6.50;99.90
26107;DHT22;13866;50.748;12.630;2022-12-18T17:03:35;-6.50;99.90
26107;DHT22;13866;50.748;12.630;2022-12-18T17:06:04;-6.50;99.90
26107;DHT22;13866;50.748;12.630;2022-12-18T17:08:29;-6.50;99.90
26107;DHT22;13866;50.748;12.630;2022-12-18T17:10:55;-6.50;99.90
26107;DHT22;13866;50.748;12.630;2022-12-18T17:13:22;-6.50;99.90